Time;durP1;ratioP1;P1;durP2;ratioP2;P2;SDS_P1;SDS_P2;PMS_P1;PMS_P2;Temp;Humidity;BMP_temperature;BMP_pressure;BME280_temperature;BME280_humidity;BME280_pressure;Samples;Min_cycle;Max_cycle;Signal;HPM_P1;HPM_P2
2022/11/25 00:00:07;;;;;;;45.23;21.20;;;;;;;;;;5056380;28;20204;-40
2022/11/25 00:02:57;;;;;;;46.47;21.70;;;;;;;;;;5056514;28;20199;-40
2022/11/25 00:05:25;;;;;;;51.97;23.00;;;;;;;;;;5056261;28;20204;-40
2022/11/25 00:07:52;;;;;;;46.13;21.90;;;;;;;;;;5056093;28;20204;-40
2022/11/25 00:10:19;;;;;;;46.87;21.73;;;;;;;;;;5056120;28;20227;-40
2022/11/25 00:12:46;;;;;;;47.27;22.20;;;;;;;;;;5055012;28;20218;-40
2022/11/25 00:15:13;;;;;;;49.77;22.30;;;;;;;;;;5055835;28;20212;-40
2022/11/25 00:17:40;;;;;;;48.67;22.63;;;;;;;;;;5055905;28;20314;-40
2022/11/25 00:20:07;;;;;;;47.50;20.83;;;;;;;;;;5055998;28;20223;-40
2022/11/25 00:22:34;;;;;;;50.10;21.80;;;;;;;;;;5055840;28;20644;-40
2022/11/25 00:25:01;;;;;;;46.20;22.13;;;;;;;;;;5055821;28;20211;-40
2022/11/25 00:27:28;;;;;;;44.40;21.13;;;;;;;;;;5055616;28;20204;-40
2022/11/25 00:29:55;;;;;;;53.20;23.50;;;;;;;;;;5055836;28;20200;-40
2022/11/25 00:32:22;;;;;;;47.37;21.03;;;;;;;;;;5055515;28;20196;-41
2022/11/25 00:34:49;;;;;;;47.37;21.67;;;;;;;;;;5055704;28;20200;-41
2022/11/25 00:37:16;;;;;;;52.03;22.00;;;;;;;;;;5055521;28;20220;-40
2022/11/25 00:39:43;;;;;;;47.07;22.13;;;;;;;;;;5054742;28;20200;-41
2022/11/25 00:44:55;;;;;;;54.57;25.30;;;;;;;;;;5055759;28;20215;-40
2022/11/25 00:47:22;;;;;;;54.80;24.20;;;;;;;;;;5055333;28;20218;-40
2022/11/25 00:49:53;;;;;;;47.40;22.73;;;;;;;;;;5055527;28;20200;-40
2022/11/25 00:52:22;;;;;;;51.57;21.83;;;;;;;;;;5054608;28;20188;-40
2022/11/25 00:54:50;;;;;;;44.43;21.23;;;;;;;;;;5055162;28;20200;-40
2022/11/25 00:57:19;;;;;;;50.57;22.07;;;;;;;;;;5055393;28;20245;-40
2022/11/25 00:59:46;;;;;;;52.73;21.63;;;;;;;;;;5055126;28;20208;-41
2022/11/25 01:02:15;;;;;;;50.10;20.87;;;;;;;;;;5055223;28;20227;-40
2022/11/25 01:04:43;;;;;;;45.63;20.73;;;;;;;;;;5054403;28;20204;-41
2022/11/25 01:07:13;;;;;;;52.40;23.03;;;;;;;;;;5054024;28;20625;-40
2022/11/25 01:09:40;;;;;;;54.90;23.67;;;;;;;;;;5055023;28;20236;-41
2022/11/25 01:12:07;;;;;;;54.87;24.13;;;;;;;;;;5054803;28;20200;-40
2022/11/25 01:14:34;;;;;;;58.33;26.17;;;;;;;;;;5054928;28;20211;-40
2022/11/25 01:17:02;;;;;;;47.63;22.70;;;;;;;;;;5055004;28;20196;-41
2022/11/25 01:19:32;;;;;;;55.97;24.60;;;;;;;;;;5054797;28;20622;-41
2022/11/25 01:21:58;;;;;;;54.03;25.40;;;;;;;;;;5054926;28;20210;-40
2022/11/25 01:24:26;;;;;;;56.07;26.10;;;;;;;;;;5054817;28;20203;-41
2022/11/25 01:26:53;;;;;;;57.60;24.53;;;;;;;;;;5053988;28;20246;-40
2022/11/25 01:29:21;;;;;;;55.23;24.00;;;;;;;;;;5055086;28;20215;-40
2022/11/25 01:31:48;;;;;;;54.47;24.47;;;;;;;;;;5053935;28;20633;-41
2022/11/25 01:34:20;;;;;;;51.50;23.80;;;;;;;;;;5055381;28;20204;-40
2022/11/25 01:36:48;;;;;;;58.27;26.17;;;;;;;;;;5054889;28;20204;-40
2022/11/25 01:39:17;;;;;;;52.60;24.67;;;;;;;;;;5054619;28;20227;-40
2022/11/25 01:41:44;;;;;;;54.67;25.20;;;;;;;;;;5054717;28;20262;-40
2022/11/25 01:44:13;;;;;;;50.60;24.67;;;;;;;;;;5054847;28;20318;-40
2022/11/25 01:47:11;;;;;;;52.43;25.90;;;;;;;;;;5054453;28;20210;-41
2022/11/25 01:49:49;;;;;;;56.93;25.13;;;;;;;;;;5054059;28;20204;-42
2022/11/25 01:52:18;;;;;;;57.67;25.33;;;;;;;;;;5053598;28;20235;-40
2022/11/25 01:54:51;;;;;;;52.37;24.73;;;;;;;;;;5058522;28;20204;-40
2022/11/25 01:57:26;;;;;;;51.97;25.37;;;;;;;;;;5058444;28;20224;-40
2022/11/25 01:59:56;;;;;;;58.50;26.33;;;;;;;;;;5057921;28;20203;-40
2022/11/25 02:02:23;;;;;;;56.47;26.63;;;;;;;;;;5041416;28;20605;-40
2022/11/25 02:04:51;;;;;;;58.70;26.47;;;;;;;;;;5058296;28;20671;-40
2022/11/25 02:07:25;;;;;;;64.00;26.40;;;;;;;;;;5040988;28;20224;-40
2022/11/25 02:09:53;;;;;;;58.10;25.63;;;;;;;;;;5041792;28;20566;-40
2022/11/25 02:12:20;;;;;;;62.70;27.83;;;;;;;;;;5057709;28;20190;-40
2022/11/25 02:14:49;;;;;;;56.37;26.50;;;;;;;;;;5057552;28;20523;-41
2022/11/25 02:17:16;;;;;;;67.70;27.17;;;;;;;;;;5057225;28;20224;-40
2022/11/25 02:20:00;;;;;;;63.10;25.50;;;;;;;;;;5058232;28;20231;-41
2022/11/25 02:22:52;;;;;;;54.13;25.87;;;;;;;;;;5057124;28;20249;-40
2022/11/25 02:25:25;;;;;;;57.40;25.37;;;;;;;;;;5040810;28;20531;-40
2022/11/25 02:27:57;;;;;;;60.20;25.47;;;;;;;;;;5057077;28;20207;-40
2022/11/25 02:30:25;;;;;;;57.63;25.33;;;;;;;;;;5057247;28;20250;-40
2022/11/25 02:32:52;;;;;;;56.33;25.13;;;;;;;;;;5057193;28;20287;-40
2022/11/25 02:35:34;;;;;;;65.13;29.47;;;;;;;;;;5057810;28;20211;-40
2022/11/25 02:38:23;;;;;;;77.70;30.77;;;;;;;;;;5057893;28;20231;-41
2022/11/25 02:40:54;;;;;;;63.60;28.40;;;;;;;;;;5057127;28;20192;-40
2022/11/25 02:43:21;;;;;;;61.77;28.53;;;;;;;;;;5040566;28;20230;-40
2022/11/25 02:45:58;;;;;;;59.23;27.67;;;;;;;;;;5057078;28;20204;-41
2022/11/25 02:48:26;;;;;;;58.47;27.20;;;;;;;;;;5056898;28;20207;-40
2022/11/25 02:51:15;;;;;;;62.43;29.53;;;;;;;;;;5056832;28;20226;-40
2022/11/25 02:53:42;;;;;;;63.57;29.23;;;;;;;;;;5056838;28;20214;-41
2022/11/25 02:56:12;;;;;;;63.53;28.63;;;;;;;;;;5056561;28;20200;-40
2022/11/25 02:58:39;;;;;;;67.47;29.73;;;;;;;;;;5057501;28;20235;-40
2022/11/25 03:01:08;;;;;;;65.87;29.80;;;;;;;;;;5056719;28;20227;-41
2022/11/25 03:03:35;;;;;;;65.50;29.20;;;;;;;;;;5057444;28;20200;-41
2022/11/25 03:06:06;;;;;;;65.63;29.93;;;;;;;;;;5056851;28;20208;-41
2022/11/25 03:08:33;;;;;;;68.93;29.53;;;;;;;;;;5056218;28;20208;-40
2022/11/25 03:11:05;;;;;;;64.53;29.03;;;;;;;;;;5057179;28;20235;-41
2022/11/25 03:13:32;;;;;;;63.20;30.37;;;;;;;;;;5056254;28;20208;-40
2022/11/25 03:16:00;;;;;;;60.80;29.10;;;;;;;;;;5057227;28;20527;-40
2022/11/25 03:18:27;;;;;;;65.40;29.20;;;;;;;;;;5056206;28;20227;-40
2022/11/25 03:20:54;;;;;;;62.37;28.27;;;;;;;;;;5057191;28;20215;-41
2022/11/25 03:23:23;;;;;;;62.80;28.83;;;;;;;;;;5055916;28;20204;-40
2022/11/25 03:25:53;;;;;;;69.97;29.43;;;;;;;;;;5057105;28;20591;-40
2022/11/25 03:28:20;;;;;;;64.57;28.83;;;;;;;;;;5057052;28;20204;-41
2022/11/25 03:30:48;;;;;;;64.37;29.70;;;;;;;;;;5056043;28;20204;-41
2022/11/25 03:33:14;;;;;;;66.80;29.37;;;;;;;;;;5056075;28;20204;-41
2022/11/25 03:35:42;;;;;;;65.27;30.17;;;;;;;;;;5056057;28;20204;-40
2022/11/25 03:38:09;;;;;;;66.00;30.00;;;;;;;;;;5055967;28;20224;-40
2022/11/25 03:40:37;;;;;;;62.07;29.60;;;;;;;;;;5055636;28;20207;-41
2022/11/25 03:43:04;;;;;;;64.97;29.93;;;;;;;;;;5055521;28;20663;-41
2022/11/25 03:45:31;;;;;;;63.47;29.60;;;;;;;;;;5055593;28;20200;-40
2022/11/25 03:48:01;;;;;;;64.50;30.13;;;;;;;;;;5055764;28;20216;-41
2022/11/25 03:50:28;;;;;;;65.50;30.10;;;;;;;;;;5055809;28;20613;-40
2022/11/25 03:52:55;;;;;;;61.43;29.80;;;;;;;;;;5055624;28;20200;-41
2022/11/25 03:55:22;;;;;;;71.10;31.83;;;;;;;;;;5055414;28;20227;-40
2022/11/25 03:57:49;;;;;;;69.30;32.27;;;;;;;;;;5055752;28;20214;-40
2022/11/25 04:00:17;;;;;;;69.37;31.57;;;;;;;;;;5055295;28;20640;-40
2022/11/25 04:02:49;;;;;;;67.10;30.00;;;;;;;;;;5056096;28;20286;-41
2022/11/25 04:05:18;;;;;;;82.63;38.10;;;;;;;;;;5055423;28;20196;-41
2022/11/25 04:07:45;;;;;;;69.30;30.87;;;;;;;;;;5055115;28;20200;-40
2022/11/25 04:10:12;;;;;;;71.37;32.17;;;;;;;;;;5054908;28;20235;-40
2022/11/25 04:12:47;;;;;;;66.97;30.87;;;;;;;;;;5055882;28;20625;-40
2022/11/25 04:15:20;;;;;;;70.10;32.50;;;;;;;;;;5055346;28;20187;-41
2022/11/25 04:17:51;;;;;;;69.83;31.30;;;;;;;;;;5054887;28;20204;-40
2022/11/25 04:20:19;;;;;;;75.23;33.47;;;;;;;;;;5054851;28;20200;-40
2022/11/25 04:22:52;;;;;;;80.33;33.53;;;;;;;;;;5055082;28;20195;-40
2022/11/25 04:25:20;;;;;;;80.03;33.80;;;;;;;;;;5054524;28;20208;-41
2022/11/25 04:27:47;;;;;;;76.27;32.97;;;;;;;;;;5047240;28;20211;-42
2022/11/25 04:30:17;;;;;;;77.90;32.97;;;;;;;;;;5036724;28;20262;-47
2022/11/25 04:32:44;;;;;;;71.27;32.30;;;;;;;;;;5053440;28;20575;-43
2022/11/25 04:35:13;;;;;;;70.57;32.00;;;;;;;;;;5054595;28;20218;-40
2022/11/25 04:37:44;;;;;;;71.63;32.50;;;;;;;;;;5053962;28;20234;-40
2022/11/25 04:40:13;;;;;;;70.43;30.60;;;;;;;;;;5037318;28;20227;-41
2022/11/25 04:42:44;;;;;;;79.13;33.33;;;;;;;;;;5054686;28;20295;-40
2022/11/25 04:45:14;;;;;;;82.73;32.57;;;;;;;;;;5053113;28;20204;-40
2022/11/25 04:47:52;;;;;;;74.10;32.40;;;;;;;;;;5068060;28;20545;-40
2022/11/25 04:50:21;;;;;;;71.33;32.00;;;;;;;;;;5054233;28;20227;-40
2022/11/25 04:52:58;;;;;;;85.30;34.47;;;;;;;;;;5054347;28;20192;-41
2022/11/25 04:55:25;;;;;;;84.00;34.33;;;;;;;;;;5054571;28;20675;-40
2022/11/25 04:57:52;;;;;;;77.43;32.93;;;;;;;;;;5050157;28;20204;-41
2022/11/25 05:00:19;;;;;;;79.07;32.43;;;;;;;;;;5051662;28;20231;-44
2022/11/25 05:02:48;;;;;;;90.00;36.37;;;;;;;;;;5070668;28;20207;-41
2022/11/25 05:05:18;;;;;;;78.83;32.93;;;;;;;;;;5053973;28;20227;-41
2022/11/25 05:07:45;;;;;;;80.73;31.77;;;;;;;;;;5053890;28;20215;-42
2022/11/25 05:10:13;;;;;;;81.80;33.93;;;;;;;;;;5054105;28;20243;-40
2022/11/25 05:12:44;;;;;;;81.40;33.77;;;;;;;;;;5052547;28;20222;-42
2022/11/25 05:15:15;;;;;;;78.53;33.33;;;;;;;;;;5047438;28;20204;-41
2022/11/25 05:17:44;;;;;;;80.43;32.23;;;;;;;;;;5053194;28;20235;-40
2022/11/25 05:20:12;;;;;;;85.27;34.23;;;;;;;;;;5053106;28;20235;-40
2022/11/25 05:22:39;;;;;;;99.13;35.30;;;;;;;;;;5053681;28;20231;-41
2022/11/25 05:25:12;;;;;;;85.33;34.30;;;;;;;;;;5039780;28;20224;-40
2022/11/25 05:27:49;;;;;;;85.47;34.00;;;;;;;;;;5043349;28;20216;-41
2022/11/25 05:30:16;;;;;;;94.43;34.47;;;;;;;;;;5040880;28;20212;-41
2022/11/25 05:32:44;;;;;;;88.30;33.93;;;;;;;;;;5052946;28;20223;-40
2022/11/25 05:35:11;;;;;;;87.53;32.93;;;;;;;;;;5053767;28;20297;-40
2022/11/25 05:37:39;;;;;;;86.47;34.17;;;;;;;;;;5052220;28;20224;-45
2022/11/25 05:40:07;;;;;;;93.33;38.80;;;;;;;;;;5048335;28;20285;-41
2022/11/25 05:43:00;;;;;;;103.30;40.97;;;;;;;;;;5051773;28;20239;-41
2022/11/25 05:45:29;;;;;;;98.33;37.30;;;;;;;;;;5052657;28;20228;-41
2022/11/25 05:47:57;;;;;;;94.47;34.23;;;;;;;;;;5051399;28;20535;-44
2022/11/25 05:50:26;;;;;;;103.10;35.40;;;;;;;;;;5051949;28;20227;-41
2022/11/25 05:53:04;;;;;;;87.73;34.53;;;;;;;;;;5053771;28;20306;-41
2022/11/25 05:55:34;;;;;;;90.00;37.40;;;;;;;;;;5052870;28;20228;-41
2022/11/25 05:58:05;;;;;;;88.90;34.60;;;;;;;;;;5051850;28;20231;-40
2022/11/25 06:00:33;;;;;;;79.13;31.30;;;;;;;;;;5044329;28;20833;-42
2022/11/25 06:03:05;;;;;;;83.33;33.40;;;;;;;;;;5044773;28;20226;-42
2022/11/25 06:05:33;;;;;;;86.17;32.73;;;;;;;;;;5044706;28;20661;-41
2022/11/25 06:08:01;;;;;;;88.93;32.57;;;;;;;;;;5050331;28;20575;-44
2022/11/25 06:10:28;;;;;;;85.73;32.83;;;;;;;;;;5073830;28;20246;-45
2022/11/25 06:12:55;;;;;;;85.87;30.57;;;;;;;;;;5043455;28;20227;-40
2022/11/25 06:15:23;;;;;;;80.67;31.93;;;;;;;;;;5037790;28;20224;-44
2022/11/25 06:17:53;;;;;;;77.63;31.27;;;;;;;;;;5051492;28;20817;-41
2022/11/25 06:20:23;;;;;;;75.17;31.10;;;;;;;;;;5046612;28;20232;-43
2022/11/25 06:22:51;;;;;;;81.53;33.13;;;;;;;;;;5051732;28;20220;-40
2022/11/25 06:25:24;;;;;;;84.27;30.73;;;;;;;;;;5051408;28;20227;-40
2022/11/25 06:27:51;;;;;;;76.27;29.83;;;;;;;;;;5034416;28;20300;-40
2022/11/25 06:30:38;;;;;;;84.43;32.53;;;;;;;;;;5043756;28;20813;-41
2022/11/25 06:33:15;;;;;;;81.63;30.90;;;;;;;;;;5052361;28;20200;-40
2022/11/25 06:35:45;;;;;;;70.93;29.50;;;;;;;;;;5052735;28;20212;-40
2022/11/25 06:38:12;;;;;;;86.93;30.00;;;;;;;;;;5052585;28;20211;-40
2022/11/25 06:40:39;;;;;;;77.73;30.20;;;;;;;;;;5053572;28;20240;-40
2022/11/25 06:43:05;;;;;;;84.20;30.13;;;;;;;;;;5057120;28;20204;-44
2022/11/25 06:45:33;;;;;;;84.67;31.17;;;;;;;;;;5055308;28;20200;-42
2022/11/25 06:47:59;;;;;;;77.27;29.33;;;;;;;;;;5057012;28;20235;-40
2022/11/25 06:50:27;;;;;;;72.00;28.47;;;;;;;;;;5056812;28;20204;-43
2022/11/25 06:52:54;;;;;;;69.10;26.17;;;;;;;;;;5057428;28;20671;-40
2022/11/25 06:55:21;;;;;;;64.87;25.10;;;;;;;;;;5057749;28;20199;-40
2022/11/25 06:57:47;;;;;;;66.00;26.63;;;;;;;;;;5057319;28;20207;-40
2022/11/25 07:00:15;;;;;;;57.23;25.10;;;;;;;;;;5050228;28;20525;-40
2022/11/25 07:02:42;;;;;;;74.97;28.53;;;;;;;;;;5036398;28;20219;-43
2022/11/25 07:05:14;;;;;;;73.63;27.23;;;;;;;;;;5037291;28;20219;-40
2022/11/25 07:07:41;;;;;;;71.70;26.87;;;;;;;;;;5044831;28;20642;-40
2022/11/25 07:10:09;;;;;;;70.43;27.80;;;;;;;;;;5053446;28;20227;-45
2022/11/25 07:12:36;;;;;;;72.90;27.00;;;;;;;;;;5056910;28;20204;-40
2022/11/25 07:15:03;;;;;;;76.97;28.83;;;;;;;;;;5053966;28;20540;-41
2022/11/25 07:17:31;;;;;;;73.67;27.83;;;;;;;;;;5044626;28;20589;-45
2022/11/25 07:19:58;;;;;;;66.93;24.90;;;;;;;;;;5053799;28;20231;-40
2022/11/25 07:22:25;;;;;;;64.97;25.97;;;;;;;;;;5067904;28;20212;-40
2022/11/25 07:24:52;;;;;;;73.40;27.97;;;;;;;;;;5066135;28;20261;-39
2022/11/25 07:27:18;;;;;;;73.53;26.87;;;;;;;;;;5076087;28;20202;-40
2022/11/25 07:29:47;;;;;;;80.97;29.27;;;;;;;;;;5057207;28;20219;-40
2022/11/25 07:32:34;;;;;;;72.97;25.87;;;;;;;;;;5055333;28;20196;-39
2022/11/25 07:35:01;;;;;;;81.13;29.97;;;;;;;;;;5054746;28;20207;-39
2022/11/25 07:37:27;;;;;;;85.93;27.17;;;;;;;;;;5055379;28;20208;-41
2022/11/25 07:39:55;;;;;;;71.13;26.13;;;;;;;;;;5056209;28;20259;-39
2022/11/25 07:42:22;;;;;;;69.57;24.77;;;;;;;;;;5055029;28;20572;-40
2022/11/25 07:44:49;;;;;;;78.90;27.67;;;;;;;;;;5056064;28;20575;-39
2022/11/25 07:47:39;;;;;;;82.10;27.37;;;;;;;;;;5055143;28;20204;-39
2022/11/25 07:50:07;;;;;;;74.73;27.43;;;;;;;;;;5054494;28;20212;-41
2022/11/25 07:52:36;;;;;;;77.27;26.70;;;;;;;;;;5055638;28;20273;-39
2022/11/25 07:55:04;;;;;;;85.57;32.63;;;;;;;;;;5055843;28;20625;-40
2022/11/25 07:57:31;;;;;;;89.27;32.80;;;;;;;;;;5052478;28;20200;-41
2022/11/25 07:59:58;;;;;;;114.00;41.13;;;;;;;;;;5037216;28;20225;-39
2022/11/25 08:02:24;;;;;;;91.43;33.63;;;;;;;;;;5038968;28;20665;-40
2022/11/25 08:04:52;;;;;;;77.60;27.83;;;;;;;;;;5052090;28;20766;-40
2022/11/25 08:07:18;;;;;;;91.63;30.67;;;;;;;;;;5051964;28;20275;-41
2022/11/25 08:09:46;;;;;;;81.43;29.07;;;;;;;;;;5043796;28;20229;-40
2022/11/25 08:12:12;;;;;;;75.63;27.47;;;;;;;;;;5034876;28;20212;-40
2022/11/25 08:14:40;;;;;;;74.43;26.90;;;;;;;;;;5035847;28;20594;-40
2022/11/25 08:17:07;;;;;;;67.03;27.17;;;;;;;;;;5035858;28;20211;-40
2022/11/25 08:19:35;;;;;;;78.07;32.63;;;;;;;;;;5034784;28;20216;-40
2022/11/25 08:22:02;;;;;;;83.33;34.33;;;;;;;;;;5035407;28;20263;-40
2022/11/25 08:24:29;;;;;;;74.57;27.03;;;;;;;;;;5035201;28;20570;-41
2022/11/25 08:27:00;;;;;;;78.93;29.70;;;;;;;;;;5033514;28;20216;-41
2022/11/25 08:29:27;;;;;;;110.57;52.23;;;;;;;;;;5033809;28;20664;-40
2022/11/25 08:31:54;;;;;;;72.83;28.63;;;;;;;;;;5035409;28;20216;-41
2022/11/25 08:34:23;;;;;;;66.23;26.07;;;;;;;;;;5035830;28;20212;-40
2022/11/25 08:36:55;;;;;;;72.03;27.03;;;;;;;;;;5018325;28;20201;-40
2022/11/25 08:39:22;;;;;;;77.57;30.30;;;;;;;;;;5034361;28;20266;-40
2022/11/25 08:42:09;;;;;;;71.77;27.17;;;;;;;;;;5035540;28;20213;-40
2022/11/25 08:44:36;;;;;;;73.67;28.27;;;;;;;;;;5034648;28;20350;-41
2022/11/25 08:47:03;;;;;;;73.57;28.17;;;;;;;;;;5034748;28;20283;-40
2022/11/25 08:49:30;;;;;;;68.03;26.30;;;;;;;;;;5034198;28;20239;-40
2022/11/25 08:52:05;;;;;;;67.23;27.17;;;;;;;;;;5036901;28;20204;-40
2022/11/25 08:54:32;;;;;;;82.67;30.80;;;;;;;;;;5046599;28;20208;-40
2022/11/25 08:56:59;;;;;;;74.07;28.83;;;;;;;;;;5052082;28;20196;-41
2022/11/25 08:59:26;;;;;;;71.83;28.30;;;;;;;;;;5042884;28;20218;-45
2022/11/25 09:01:54;;;;;;;67.67;28.90;;;;;;;;;;5039529;28;20306;-40
2022/11/25 09:04:21;;;;;;;73.97;27.60;;;;;;;;;;5034796;28;20201;-41
2022/11/25 09:06:48;;;;;;;67.47;25.83;;;;;;;;;;5035080;28;20290;-41
2022/11/25 09:09:15;;;;;;;87.07;31.60;;;;;;;;;;5047785;28;20200;-41
2022/11/25 09:11:42;;;;;;;87.37;34.57;;;;;;;;;;5050397;28;20219;-40
2022/11/25 09:14:09;;;;;;;93.53;34.00;;;;;;;;;;5049503;28;20540;-41
2022/11/25 09:16:36;;;;;;;81.07;31.97;;;;;;;;;;5053744;28;20219;-40
2022/11/25 09:19:05;;;;;;;88.50;31.57;;;;;;;;;;5052284;28;20211;-40
2022/11/25 09:21:32;;;;;;;86.33;33.27;;;;;;;;;;5053850;28;20230;-40
2022/11/25 09:23:59;;;;;;;89.90;33.80;;;;;;;;;;5054489;28;20210;-40
2022/11/25 09:26:34;;;;;;;84.57;33.27;;;;;;;;;;5052755;28;20204;-40
2022/11/25 09:29:02;;;;;;;93.67;34.07;;;;;;;;;;5046216;28;20200;-42
2022/11/25 09:31:29;;;;;;;84.13;30.93;;;;;;;;;;5047295;28;20279;-41
2022/11/25 09:33:56;;;;;;;88.07;33.43;;;;;;;;;;5039145;28;20527;-44
2022/11/25 09:36:23;;;;;;;93.20;36.10;;;;;;;;;;5036931;28;20715;-44
2022/11/25 09:38:51;;;;;;;250.00;105.17;;;;;;;;;;5035442;28;20200;-40
2022/11/25 09:47:54;;;;;;;62.77;25.23;;;;;;;;;;5032589;28;20215;-41
2022/11/25 09:50:27;;;;;;;91.87;35.67;;;;;;;;;;5031806;28;20208;-40
2022/11/25 09:53:14;;;;;;;74.40;28.57;;;;;;;;;;5032872;28;20213;-41
2022/11/25 09:55:46;;;;;;;72.90;26.77;;;;;;;;;;5032030;28;20696;-42
2022/11/25 09:58:38;;;;;;;73.50;25.70;;;;;;;;;;5032771;28;20660;-40
2022/11/25 10:01:13;;;;;;;64.00;26.00;;;;;;;;;;5032911;28;20216;-40
2022/11/25 10:03:51;;;;;;;68.33;24.57;;;;;;;;;;5047216;28;20261;-40
2022/11/25 10:06:27;;;;;;;69.50;28.40;;;;;;;;;;5040211;28;20196;-41
2022/11/25 10:08:57;;;;;;;77.13;29.53;;;;;;;;;;5033703;28;20239;-42
2022/11/25 10:12:02;;;;;;;73.17;27.83;;;;;;;;;;5036792;28;20236;-40
2022/11/25 10:14:49;;;;;;;85.63;30.60;;;;;;;;;;4975671;28;20233;-40
2022/11/25 10:17:37;;;;;;;79.33;32.73;;;;;;;;;;5034638;28;20208;-40
2022/11/25 10:20:11;;;;;;;70.10;24.37;;;;;;;;;;5037067;28;20530;-39
2022/11/25 10:22:43;;;;;;;75.27;26.47;;;;;;;;;;5037919;28;20188;-40
2022/11/25 10:25:22;;;;;;;85.50;31.07;;;;;;;;;;5036912;28;20704;-44
2022/11/25 10:27:55;;;;;;;100.60;41.53;;;;;;;;;;5036337;28;20189;-40
2022/11/25 10:30:31;;;;;;;82.73;35.37;;;;;;;;;;5036612;28;20208;-41
2022/11/25 10:33:21;;;;;;;114.33;46.67;;;;;;;;;;5036713;28;20211;-43
2022/11/25 10:35:54;;;;;;;138.83;56.93;;;;;;;;;;5036829;28;20284;-43
2022/11/25 10:38:27;;;;;;;112.90;48.63;;;;;;;;;;5036106;28;20621;-41
2022/11/25 10:40:55;;;;;;;84.30;31.77;;;;;;;;;;5036714;28;20685;-40
2022/11/25 10:43:22;;;;;;;69.03;25.87;;;;;;;;;;5036022;28;20254;-41
2022/11/25 10:46:23;;;;;;;75.70;28.77;;;;;;;;;;5036779;28;20579;-42
2022/11/25 10:49:27;;;;;;;59.60;24.93;;;;;;;;;;5037262;28;20208;-40
2022/11/25 10:51:56;;;;;;;72.30;26.53;;;;;;;;;;5038795;28;20287;-40
2022/11/25 10:54:26;;;;;;;70.60;25.47;;;;;;;;;;5035776;28;20200;-41
2022/11/25 10:56:58;;;;;;;69.03;26.23;;;;;;;;;;5036147;28;20239;-41
2022/11/25 10:59:29;;;;;;;77.90;27.90;;;;;;;;;;5041754;28;20267;-41
2022/11/25 11:02:19;;;;;;;72.63;27.70;;;;;;;;;;5036815;28;20227;-44
2022/11/25 11:05:07;;;;;;;68.23;26.87;;;;;;;;;;5035405;28;20192;-41
2022/11/25 11:07:37;;;;;;;79.83;29.70;;;;;;;;;;5053745;28;20188;-40
2022/11/25 11:10:13;;;;;;;72.00;26.23;;;;;;;;;;5056577;28;20224;-41
2022/11/25 11:13:04;;;;;;;76.43;26.67;;;;;;;;;;5057268;28;20281;-40
2022/11/25 11:15:44;;;;;;;61.30;24.67;;;;;;;;;;5048344;28;20880;-41
2022/11/25 11:18:50;;;;;;;101.27;42.17;;;;;;;;;;5054429;28;20186;-40
2022/11/25 11:21:23;;;;;;;74.23;28.90;;;;;;;;;;5056229;28;20227;-43
2022/11/25 11:23:54;;;;;;;242.63;65.50;;;;;;;;;;5055028;28;20200;-41
2022/11/25 11:26:30;;;;;;;192.70;60.93;;;;;;;;;;5055848;28;20216;-40
2022/11/25 11:28:59;;;;;;;73.70;28.80;;;;;;;;;;5055966;28;20208;-43
2022/11/25 11:31:31;;;;;;;71.63;29.33;;;;;;;;;;5051421;28;20207;-40
2022/11/25 11:34:10;;;;;;;78.97;30.40;;;;;;;;;;5043164;28;20633;-43
2022/11/25 11:36:57;;;;;;;76.83;28.60;;;;;;;;;;5036038;28;20209;-44
2022/11/25 11:39:51;;;;;;;66.57;27.07;;;;;;;;;;5036807;28;20287;-40
2022/11/25 11:42:39;;;;;;;63.80;25.63;;;;;;;;;;5036395;28;20552;-40
2022/11/25 11:45:34;;;;;;;66.60;26.37;;;;;;;;;;5041396;28;20219;-41
2022/11/25 11:48:32;;;;;;;64.07;26.60;;;;;;;;;;5048405;28;20197;-43
2022/11/25 11:51:20;;;;;;;141.10;59.63;;;;;;;;;;5036214;28;20208;-42
2022/11/25 11:53:59;;;;;;;86.77;44.47;;;;;;;;;;5037498;28;20208;-40
2022/11/25 11:56:51;;;;;;;93.23;44.23;;;;;;;;;;5039675;28;20189;-40
2022/11/25 11:59:51;;;;;;;85.73;39.93;;;;;;;;;;5034691;28;20201;-40
2022/11/25 12:02:33;;;;;;;73.10;32.30;;;;;;;;;;5040383;28;20662;-40
2022/11/25 12:05:10;;;;;;;58.20;24.40;;;;;;;;;;5042203;28;20621;-40
2022/11/25 12:07:39;;;;;;;57.67;25.23;;;;;;;;;;5037042;28;20223;-41
2022/11/25 12:10:17;;;;;;;50.53;22.23;;;;;;;;;;5032828;28;20244;-39
2022/11/25 12:13:03;;;;;;;57.20;24.20;;;;;;;;;;5041285;28;20203;-41
2022/11/25 12:15:50;;;;;;;54.57;25.40;;;;;;;;;;5053451;28;20200;-39
2022/11/25 12:18:59;;;;;;;55.80;23.80;;;;;;;;;;5042694;28;20638;-40
2022/11/25 12:21:47;;;;;;;53.53;23.07;;;;;;;;;;4982063;28;20691;-39
2022/11/25 12:24:23;;;;;;;54.10;26.13;;;;;;;;;;5033590;28;20193;-43
2022/11/25 12:26:56;;;;;;;71.67;34.27;;;;;;;;;;5035457;28;20485;-40
2022/11/25 12:29:33;;;;;;;67.20;32.67;;;;;;;;;;5042761;28;20207;-41
2022/11/25 12:32:39;;;;;;;67.43;32.40;;;;;;;;;;5052442;28;20204;-40
2022/11/25 12:35:17;;;;;;;78.67;37.10;;;;;;;;;;5024106;28;20583;-40
2022/11/25 12:38:22;;;;;;;88.13;40.77;;;;;;;;;;5051472;28;20219;-40
2022/11/25 12:41:00;;;;;;;68.00;32.83;;;;;;;;;;5053965;28;20266;-44
2022/11/25 12:43:30;;;;;;;82.53;37.73;;;;;;;;;;5053572;28;20559;-40
2022/11/25 12:46:14;;;;;;;89.27;40.27;;;;;;;;;;5053758;28;20698;-41
2022/11/25 12:48:42;;;;;;;74.27;32.87;;;;;;;;;;5053298;28;20266;-41
2022/11/25 12:51:19;;;;;;;95.80;49.10;;;;;;;;;;5054861;28;20266;-41
2022/11/25 12:53:54;;;;;;;92.40;42.90;;;;;;;;;;5055039;28;20199;-39
2022/11/25 12:56:36;;;;;;;92.30;44.17;;;;;;;;;;5055204;28;20484;-41
2022/11/25 12:59:25;;;;;;;106.87;53.60;;;;;;;;;;5054162;28;20215;-40
2022/11/25 13:02:11;;;;;;;74.13;32.97;;;;;;;;;;5053519;28;20216;-40
2022/11/25 13:05:09;;;;;;;84.47;34.70;;;;;;;;;;5054113;28;20490;-41
2022/11/25 13:08:18;;;;;;;96.53;40.10;;;;;;;;;;5053010;28;20279;-44
2022/11/25 13:10:51;;;;;;;95.40;40.20;;;;;;;;;;5044380;28;20583;-42
2022/11/25 13:13:32;;;;;;;101.10;43.47;;;;;;;;;;5053001;28;20270;-41
2022/11/25 13:16:00;;;;;;;79.70;32.67;;;;;;;;;;5033587;28;20618;-41
2022/11/25 13:18:30;;;;;;;83.63;32.87;;;;;;;;;;5048284;28;20204;-42
2022/11/25 13:21:06;;;;;;;85.17;31.97;;;;;;;;;;5043444;28;20243;-43
2022/11/25 13:23:47;;;;;;;103.00;33.40;;;;;;;;;;5046630;28;20192;-42
2022/11/25 13:26:27;;;;;;;103.37;39.23;;;;;;;;;;5054530;28;20184;-46
2022/11/25 13:28:55;;;;;;;79.90;31.97;;;;;;;;;;5053795;28;20188;-41
2022/11/25 13:31:25;;;;;;;102.07;36.40;;;;;;;;;;5054074;28;20544;-40
2022/11/25 13:34:07;;;;;;;84.43;32.77;;;;;;;;;;5045564;28;20278;-42
2022/11/25 13:36:54;;;;;;;103.20;34.90;;;;;;;;;;5051738;28;20203;-43
2022/11/25 13:39:34;;;;;;;87.77;32.87;;;;;;;;;;5053062;28;20261;-43
2022/11/25 13:42:21;;;;;;;89.90;32.37;;;;;;;;;;5052693;28;20207;-46
2022/11/25 13:44:52;;;;;;;96.97;32.13;;;;;;;;;;5053051;28;20667;-42
2022/11/25 13:47:35;;;;;;;91.60;32.03;;;;;;;;;;5047180;28;20624;-44
2022/11/25 13:50:23;;;;;;;88.37;30.23;;;;;;;;;;5035878;28;20189;-43
2022/11/25 13:53:20;;;;;;;83.33;31.03;;;;;;;;;;5048715;28;20215;-47
2022/11/25 13:55:49;;;;;;;93.53;30.73;;;;;;;;;;5057135;28;20204;-47
2022/11/25 13:58:24;;;;;;;96.57;34.27;;;;;;;;;;5057003;28;20219;-44
2022/11/25 14:01:20;;;;;;;110.07;38.43;;;;;;;;;;5056158;28;20253;-46
2022/11/25 14:03:56;;;;;;;97.83;35.20;;;;;;;;;;5056757;28;20203;-48
2022/11/25 14:06:35;;;;;;;106.80;36.70;;;;;;;;;;5057299;28;20204;-43
2022/11/25 14:09:15;;;;;;;106.90;35.83;;;;;;;;;;5058202;28;20215;-44
2022/11/25 14:11:54;;;;;;;107.23;35.53;;;;;;;;;;5057866;28;20279;-47
2022/11/25 14:14:24;;;;;;;105.17;35.13;;;;;;;;;;5058026;28;20261;-43
2022/11/25 14:17:13;;;;;;;102.70;32.27;;;;;;;;;;5054185;28;20633;-45
2022/11/25 14:19:49;;;;;;;86.77;30.83;;;;;;;;;;5055755;28;20609;-46
2022/11/25 14:22:39;;;;;;;88.47;32.47;;;;;;;;;;5056560;28;20528;-43
2022/11/25 14:25:18;;;;;;;108.00;34.20;;;;;;;;;;5056885;28;20200;-44
2022/11/25 14:27:47;;;;;;;102.40;33.97;;;;;;;;;;5053347;28;21495;-43
2022/11/25 14:30:15;;;;;;;183.00;70.80;;;;;;;;;;5057559;28;20204;-44
2022/11/25 14:33:01;;;;;;;120.30;43.07;;;;;;;;;;5056873;28;20204;-43
2022/11/25 14:35:33;;;;;;;133.63;43.77;;;;;;;;;;5056119;28;20295;-42
2022/11/25 14:38:12;;;;;;;105.33;35.40;;;;;;;;;;5057119;28;20507;-45
2022/11/25 14:40:44;;;;;;;106.60;37.07;;;;;;;;;;5050516;28;20189;-46
2022/11/25 14:43:24;;;;;;;142.27;44.40;;;;;;;;;;5046975;28;20212;-46
2022/11/25 14:46:19;;;;;;;131.93;40.50;;;;;;;;;;5046578;28;20293;-48
2022/11/25 14:48:54;;;;;;;118.60;38.80;;;;;;;;;;5046871;28;20633;-42
2022/11/25 14:51:24;;;;;;;109.87;36.97;;;;;;;;;;5046039;28;20351;-43
2022/11/25 14:53:51;;;;;;;122.07;39.87;;;;;;;;;;5045768;28;20233;-41
2022/11/25 14:56:26;;;;;;;121.97;38.13;;;;;;;;;;5043360;28;20526;-44
2022/11/25 14:58:54;;;;;;;132.43;42.23;;;;;;;;;;5046054;28;20263;-42